Harbor Isle, New York
Current Conditions -  °F | °C
As of 5:51 PM on Thursday 23 Oct 2014 (Local Time) from KJFK Reporting Station
Overcast Overcast  
Wind Chill: 12°   Ceiling: 2300
Heat Index: 12°   Visibility: 10mi
Dew Point:   Wind: 22mph
Humidity: 72%   Direction: 340°NNW
Pressure: 29.72"   Gusts: 26mph
Location:  40.6062°N, 73.6508°W
Report Text: KJFK 232151Z 34019G23KT 10SM BKN023 OVC033 12/07 A2972 RMK AO2 SLP063 T01220072
Loading
Personal Weather Stations






























Interactive Weather Map
Tropical Storm Tracking
New forecast layout! Learn more

10-Day Weather Forecast

Advertisements
Track Severe Weather on mobile